createdAt,value
2019-03-22T00:02:06.657Z,96.18
2019-03-22T00:04:36.015Z,96.04
2019-03-22T00:07:05.483Z,96.03
2019-03-22T00:09:35.040Z,95.97
2019-03-22T00:12:04.544Z,95.75
2019-03-22T00:14:33.868Z,95.39
2019-03-22T00:17:03.447Z,94.99
2019-03-22T00:19:34.269Z,95.73
2019-03-22T00:22:03.915Z,95.82
2019-03-22T00:24:33.299Z,95.73
2019-03-22T00:27:02.852Z,95.47
2019-03-22T00:29:32.245Z,95.14
2019-03-22T00:32:01.807Z,94.76
2019-03-22T00:34:31.229Z,94.74
2019-03-22T00:37:00.910Z,94.75
2019-03-22T00:39:30.484Z,95.19
2019-03-22T00:41:59.990Z,94.94
2019-03-22T00:44:29.458Z,95.03
2019-03-22T00:47:00.314Z,94.97
2019-03-22T00:49:29.777Z,95.47
2019-03-22T00:51:59.208Z,95.84
2019-03-22T00:54:28.575Z,95.52
2019-03-22T00:56:59.551Z,95.32
2019-03-22T00:59:28.881Z,95.49
2019-03-22T01:01:58.258Z,95.08
2019-03-22T01:04:27.635Z,95.15
2019-03-22T01:17:45.399Z,94.78
2019-03-22T01:20:15.152Z,94.79
2019-03-22T01:22:44.635Z,95.25
2019-03-22T01:25:14.123Z,95.00
2019-03-22T01:27:43.592Z,95.02
2019-03-22T01:30:13.543Z,94.95
2019-03-22T01:32:42.922Z,94.85
2019-03-22T01:35:12.601Z,94.90
2019-03-22T01:37:41.974Z,94.78
2019-03-22T01:40:11.662Z,95.15
2019-03-22T01:42:41.053Z,95.39
2019-03-22T01:45:11.213Z,95.14
2019-03-22T01:47:40.589Z,95.25
2019-03-22T01:50:11.654Z,95.26
2019-03-22T01:52:41.378Z,95.30
2019-03-22T01:55:11.461Z,95.36
2019-03-22T01:57:51.935Z,95.17
2019-03-22T02:00:12.560Z,95.13
2019-03-22T02:02:41.921Z,95.02
2019-03-22T02:05:11.767Z,95.04
2019-03-22T02:07:41.259Z,94.89
2019-03-22T02:10:11.710Z,94.72
2019-03-22T02:12:42.230Z,94.85
2019-03-22T02:15:13.405Z,94.74
2019-03-22T02:17:43.261Z,94.83
2019-03-22T02:20:13.090Z,94.66
2019-03-22T02:22:42.617Z,94.32
2019-03-22T02:25:12.327Z,94.48
2019-03-22T02:27:41.900Z,94.40
2019-03-22T02:30:11.566Z,94.65
2019-03-22T02:32:41.031Z,94.68
2019-03-22T02:35:26.990Z,94.58
2019-03-22T02:37:42.314Z,94.48
2019-03-22T02:40:12.673Z,94.75
2019-03-22T02:42:42.002Z,94.85
2019-03-22T02:45:11.740Z,94.71
2019-03-22T02:47:41.259Z,94.68
2019-03-22T02:50:17.887Z,94.92
2019-03-22T02:52:42.575Z,94.90
2019-03-22T02:55:12.301Z,95.12
2019-03-22T02:57:41.722Z,94.94
2019-03-22T03:00:11.776Z,94.70
2019-03-22T03:02:41.412Z,94.63
2019-03-22T03:05:11.357Z,94.59
2019-03-22T03:07:40.741Z,94.73
2019-03-22T03:10:11.092Z,94.46
2019-03-22T03:12:40.453Z,94.48
2019-03-22T03:15:11.053Z,94.39
2019-03-22T03:17:40.574Z,94.07
2019-03-22T03:20:12.899Z,94.07
2019-03-22T03:22:42.280Z,94.07
2019-03-22T03:25:12.332Z,94.08
2019-03-22T03:27:41.848Z,94.25
2019-03-22T03:36:19.086Z,94.46
2019-03-22T03:38:48.428Z,94.66
2019-03-22T03:41:17.863Z,95.05
2019-03-22T03:43:47.321Z,95.02
2019-03-22T03:46:16.729Z,94.81
2019-03-22T03:48:46.165Z,94.87
2019-03-22T03:51:15.631Z,95.35
2019-03-22T03:53:45.105Z,94.94
2019-03-22T03:56:14.557Z,94.64
2019-03-22T03:58:52.213Z,94.63
2019-03-22T04:01:15.555Z,94.51
2019-03-22T04:03:44.917Z,94.54
2019-03-22T04:06:14.290Z,94.58
2019-03-22T04:08:43.737Z,94.75
2019-03-22T04:11:13.206Z,94.55
2019-03-22T04:13:42.686Z,94.43
2019-03-22T04:16:12.078Z,94.53
2019-03-22T04:18:41.588Z,94.58
2019-03-22T04:21:11.103Z,94.66
2019-03-22T04:23:40.645Z,94.98
2019-03-22T04:26:10.040Z,95.37
2019-03-22T04:28:39.588Z,95.24
2019-03-22T04:31:09.140Z,95.00
2019-03-22T04:33:39.031Z,94.75
2019-03-22T04:36:08.418Z,94.83
2019-03-22T04:38:37.831Z,94.89
2019-03-22T04:41:07.333Z,94.99
2019-03-22T04:43:37.810Z,95.01
2019-03-22T04:46:08.176Z,95.17
2019-03-22T04:48:38.931Z,95.15
2019-03-22T04:51:09.591Z,94.91
2019-03-22T04:53:44.256Z,95.10
2019-03-22T04:56:16.714Z,95.18
2019-03-22T04:58:49.156Z,95.31
2019-03-22T05:01:20.364Z,95.20
2019-03-22T05:03:50.159Z,95.17
2019-03-22T05:06:21.761Z,95.07
2019-03-22T05:08:52.847Z,95.02
2019-03-22T05:11:23.220Z,94.93
2019-03-22T05:13:56.231Z,94.92
2019-03-22T05:16:26.753Z,94.98
2019-03-22T05:18:57.484Z,95.46
2019-03-22T05:21:28.701Z,95.60
2019-03-22T05:24:00.280Z,95.34
2019-03-22T05:26:32.390Z,95.07
2019-03-22T05:29:02.355Z,95.25
2019-03-22T05:32:10.219Z,95.25
2019-03-22T05:34:39.625Z,95.50
2019-03-22T05:37:09.309Z,95.55
2019-03-22T05:39:41.079Z,95.26
2019-03-22T05:42:12.507Z,95.09
2019-03-22T05:44:41.926Z,95.01
2019-03-22T05:47:11.514Z,94.93
2019-03-22T05:49:41.092Z,94.98
2019-03-22T05:52:10.678Z,94.99
2019-03-22T05:54:40.021Z,94.94
2019-03-22T05:57:13.606Z,95.01
2019-03-22T05:59:42.680Z,95.06
2019-03-22T06:02:12.084Z,94.99
2019-03-22T06:04:41.617Z,95.03
2019-03-22T06:07:11.200Z,95.17
2019-03-22T06:09:41.783Z,95.27
2019-03-22T06:12:11.207Z,95.16
2019-03-22T06:14:40.796Z,95.14
2019-03-22T06:17:10.286Z,95.16
2019-03-22T06:19:42.354Z,95.23
2019-03-22T06:22:36.526Z,95.10
2019-03-22T06:25:06.269Z,95.31
2019-03-22T06:27:35.811Z,95.08
2019-03-22T06:30:07.641Z,95.12
2019-03-22T06:32:37.229Z,95.09
2019-03-22T06:35:07.055Z,95.02
2019-03-22T06:37:36.560Z,95.00
2019-03-22T06:40:06.552Z,95.16
2019-03-22T06:42:35.951Z,95.20
2019-03-22T06:45:06.003Z,95.16
2019-03-22T06:47:35.652Z,95.17
2019-03-22T06:50:05.930Z,95.31
2019-03-22T06:52:35.531Z,95.35
2019-03-22T06:55:06.414Z,95.36
2019-03-22T06:57:35.973Z,95.29
2019-03-22T07:00:07.413Z,95.24
2019-03-22T07:02:37.050Z,95.04
2019-03-22T07:05:07.049Z,95.10
2019-03-22T07:07:36.906Z,95.25
2019-03-22T07:10:06.721Z,95.31
2019-03-22T07:12:36.203Z,95.35
2019-03-22T07:15:06.374Z,95.35
2019-03-22T07:17:35.817Z,95.32
2019-03-22T07:20:06.016Z,95.33
2019-03-22T07:22:35.420Z,95.39
2019-03-22T07:25:05.397Z,95.36
2019-03-22T07:27:34.888Z,95.44
2019-03-22T07:30:04.853Z,95.56
2019-03-22T07:32:34.373Z,95.56
2019-03-22T07:35:03.999Z,95.38
2019-03-22T07:37:33.327Z,95.65
2019-03-22T07:40:02.699Z,95.45
2019-03-22T07:42:32.536Z,95.57
2019-03-22T07:45:01.967Z,95.58
2019-03-22T07:47:31.384Z,95.64
2019-03-22T07:50:01.089Z,95.66
2019-03-22T07:52:30.544Z,95.63
2019-03-22T07:55:00.152Z,95.45
2019-03-22T07:57:29.802Z,95.39
2019-03-22T07:59:59.170Z,95.33
2019-03-22T08:02:28.651Z,95.46
2019-03-22T08:04:58.309Z,95.49
2019-03-22T08:07:27.809Z,95.05
2019-03-22T08:09:57.385Z,95.00
2019-03-22T08:12:29.162Z,95.27
2019-03-22T08:14:58.532Z,95.39
2019-03-22T08:17:28.089Z,95.30
2019-03-22T08:19:57.637Z,95.23
2019-03-22T08:22:27.209Z,95.23
2019-03-22T08:24:56.544Z,95.05
2019-03-22T08:27:25.940Z,94.73
2019-03-22T08:29:55.316Z,94.54
2019-03-22T08:32:24.727Z,94.50
2019-03-22T08:34:54.247Z,94.43
2019-03-22T08:37:23.665Z,94.15
2019-03-22T08:39:55.799Z,93.98
2019-03-22T08:42:25.824Z,93.93
2019-03-22T08:44:55.216Z,93.69
2019-03-22T08:47:33.678Z,93.66
2019-03-22T08:49:56.130Z,93.41
2019-03-22T08:52:25.458Z,93.34
2019-03-22T08:54:54.776Z,93.36
2019-03-22T08:57:25.206Z,93.23
2019-03-22T08:59:54.704Z,93.24
2019-03-22T09:02:24.149Z,93.18
2019-03-22T09:04:53.646Z,93.10
2019-03-22T09:07:24.411Z,93.22
2019-03-22T09:09:54.143Z,93.16
2019-03-22T09:12:23.632Z,92.97
2019-03-22T09:14:52.944Z,92.84
2019-03-22T09:17:22.322Z,92.97
2019-03-22T09:19:51.780Z,92.96
2019-03-22T09:22:21.099Z,92.85
2019-03-22T09:24:50.478Z,92.67
2019-03-22T09:27:22.313Z,92.47
2019-03-22T09:29:51.842Z,92.28
2019-03-22T09:32:21.509Z,92.25
2019-03-22T09:34:50.845Z,92.43
2019-03-22T09:37:20.224Z,92.27
2019-03-22T09:39:49.734Z,92.26
2019-03-22T09:42:19.070Z,92.26
2019-03-22T09:44:48.707Z,92.24
2019-03-22T09:47:18.524Z,92.27
2019-03-22T09:49:51.021Z,92.22
2019-03-22T09:52:19.224Z,92.08
2019-03-22T09:54:48.564Z,91.81
2019-03-22T09:57:17.979Z,91.83
2019-03-22T09:59:47.456Z,91.66
2019-03-22T10:02:17.010Z,91.39
2019-03-22T10:04:49.388Z,91.25
2019-03-22T10:07:18.887Z,91.20
2019-03-22T10:09:48.233Z,91.06
2019-03-22T10:12:17.616Z,90.85
2019-03-22T10:14:47.288Z,90.66
2019-03-22T10:17:17.069Z,90.44
2019-03-22T10:19:46.633Z,90.21
2019-03-22T10:22:16.015Z,90.17
2019-03-22T10:24:45.668Z,89.93
2019-03-22T10:27:15.432Z,89.62
2019-03-22T10:29:44.895Z,89.37
2019-03-22T10:32:14.262Z,89.36
2019-03-22T10:34:43.818Z,89.34
2019-03-22T10:37:13.490Z,89.16
2019-03-22T10:39:42.991Z,89.14
2019-03-22T10:42:12.601Z,88.99
2019-03-22T10:44:42.658Z,89.03
2019-03-22T10:47:12.428Z,88.68
2019-03-22T10:49:42.345Z,88.84
2019-03-22T10:52:11.847Z,88.67
2019-03-22T10:54:41.391Z,88.49
2019-03-22T10:57:11.424Z,88.23
2019-03-22T10:59:41.069Z,88.24
2019-03-22T11:02:10.640Z,88.04
2019-03-22T11:04:40.212Z,87.84
2019-03-22T11:07:10.143Z,87.62
2019-03-22T11:09:39.601Z,87.35
2019-03-22T11:12:12.420Z,87.27
2019-03-22T11:15:01.419Z,87.01
2019-03-22T11:17:31.420Z,87.22
2019-03-22T11:20:00.917Z,87.14
2019-03-22T11:22:30.474Z,86.83
2019-03-22T11:25:00.279Z,86.95
2019-03-22T11:27:30.041Z,86.19
2019-03-22T11:29:59.527Z,86.14
2019-03-22T11:32:29.074Z,85.93
2019-03-22T11:34:58.779Z,85.72
2019-03-22T11:37:28.447Z,85.49
2019-03-22T11:39:58.487Z,85.68
2019-03-22T11:42:28.115Z,85.26
2019-03-22T11:45:00.649Z,84.99
2019-03-22T11:47:30.239Z,84.83
2019-03-22T11:49:59.737Z,84.66
2019-03-22T11:52:30.039Z,84.29
2019-03-22T11:54:59.499Z,83.94
2019-03-22T11:57:29.142Z,84.17
2019-03-22T11:59:58.681Z,83.69
2019-03-22T12:02:30.119Z,83.61
2019-03-22T12:04:59.281Z,83.85
2019-03-22T12:07:30.290Z,83.72
2019-03-22T12:10:05.637Z,83.66
2019-03-22T12:12:44.370Z,83.40
2019-03-22T12:15:16.535Z,82.94
2019-03-22T12:17:46.278Z,82.91
2019-03-22T12:20:17.384Z,82.32
2019-03-22T12:22:46.968Z,82.39
2019-03-22T12:25:17.527Z,81.89
2019-03-22T12:27:48.481Z,82.16
2019-03-22T12:30:18.371Z,81.66
2019-03-22T12:32:47.871Z,81.68
2019-03-22T12:35:17.909Z,81.41
2019-03-22T12:37:47.683Z,81.04
2019-03-22T12:40:18.779Z,80.58
2019-03-22T12:42:48.999Z,79.81
2019-03-22T12:45:23.073Z,79.21
2019-03-22T12:47:52.596Z,79.09
2019-03-22T12:50:22.889Z,78.16
2019-03-22T12:52:53.901Z,77.50
2019-03-22T12:55:23.477Z,77.69
2019-03-22T12:57:53.074Z,77.43
2019-03-22T13:00:22.799Z,76.71
2019-03-22T13:02:52.691Z,77.11
2019-03-22T13:05:23.037Z,76.89
2019-03-22T13:07:52.713Z,76.53
2019-03-22T13:10:23.560Z,75.85
2019-03-22T13:12:53.005Z,76.44
2019-03-22T13:15:22.817Z,75.83
2019-03-22T13:17:52.367Z,75.82
2019-03-22T13:20:26.878Z,75.38
2019-03-22T13:22:56.221Z,75.38
2019-03-22T13:25:43.196Z,75.29
2019-03-22T13:28:13.636Z,75.10
2019-03-22T13:30:43.029Z,75.70
2019-03-22T13:33:12.424Z,74.88
2019-03-22T13:35:41.992Z,74.77
2019-03-22T13:38:14.659Z,74.46
2019-03-22T13:40:44.184Z,74.72
2019-03-22T13:43:15.896Z,74.49
2019-03-22T13:46:01.133Z,73.93
2019-03-22T13:48:30.489Z,74.44
2019-03-22T13:51:00.143Z,73.28
2019-03-22T13:53:29.824Z,72.44
2019-03-22T13:56:02.959Z,72.79
2019-03-22T13:58:35.034Z,72.51
2019-03-22T14:01:06.456Z,71.88
2019-03-22T14:03:35.855Z,72.06
2019-03-22T14:06:10.361Z,72.02
2019-03-22T14:08:39.898Z,72.04
2019-03-22T14:11:09.380Z,71.11
2019-03-22T14:13:39.796Z,71.63
2019-03-22T14:16:11.874Z,71.86
2019-03-22T14:18:41.379Z,71.27
2019-03-22T14:21:14.037Z,71.04
2019-03-22T14:23:45.629Z,71.09
2019-03-22T14:26:15.055Z,69.92
2019-03-22T14:28:44.433Z,70.04
2019-03-22T14:31:13.777Z,69.99
2019-03-22T14:33:43.183Z,70.34
2019-03-22T14:36:12.639Z,70.06
2019-03-22T14:38:44.194Z,69.22
2019-03-22T14:41:13.276Z,68.51
2019-03-22T14:43:43.171Z,67.72
2019-03-22T14:46:12.654Z,67.09
2019-03-22T14:48:42.101Z,68.00
2019-03-22T14:51:11.615Z,68.13
2019-03-22T14:54:26.873Z,67.85
2019-03-22T14:56:58.615Z,67.68
2019-03-22T14:59:28.063Z,68.03
2019-03-22T15:01:57.642Z,68.03
2019-03-22T15:04:27.002Z,68.14
2019-03-22T15:06:56.389Z,68.18
2019-03-22T15:09:26.098Z,68.55
2019-03-22T15:11:55.564Z,68.32
2019-03-22T15:14:42.630Z,68.67
2019-03-22T15:17:22.913Z,68.08
2019-03-22T15:20:10.101Z,68.23
2019-03-22T15:23:04.295Z,67.94
2019-03-22T15:25:52.688Z,67.10
2019-03-22T15:28:35.686Z,66.42
2019-03-22T15:31:30.193Z,66.31
2019-03-22T15:34:07.252Z,66.38
2019-03-22T15:36:54.780Z,66.09
2019-03-22T15:39:43.489Z,65.29
2019-03-22T15:42:13.257Z,65.52
2019-03-22T15:44:42.709Z,63.79
2019-03-22T15:47:12.197Z,62.33
2019-03-22T15:49:41.770Z,58.40
2019-03-22T15:52:11.190Z,56.65
2019-03-22T15:54:43.507Z,53.70
2019-03-22T15:57:13.104Z,53.86
2019-03-22T15:59:42.583Z,54.47
2019-03-22T16:02:12.231Z,59.36
2019-03-22T16:04:41.775Z,65.22
2019-03-22T16:07:11.199Z,57.97
2019-03-22T16:09:40.803Z,55.68
2019-03-22T16:12:10.251Z,59.75
2019-03-22T16:14:41.975Z,56.33
2019-03-22T16:17:11.425Z,59.09
2019-03-22T16:19:41.127Z,56.25
2019-03-22T16:22:10.526Z,56.12
2019-03-22T16:24:40.098Z,55.02
2019-03-22T16:27:09.606Z,51.73
2019-03-22T16:29:39.028Z,56.84
2019-03-22T16:32:08.524Z,55.99
2019-03-22T16:34:38.074Z,60.38
2019-03-22T16:37:07.541Z,59.06
2019-03-22T16:39:36.979Z,59.98
2019-03-22T16:42:06.426Z,59.31
2019-03-22T16:44:35.874Z,60.78
2019-03-22T16:47:05.330Z,64.50
2019-03-22T16:49:34.784Z,67.09
2019-03-22T16:52:04.390Z,70.08
2019-03-22T16:54:33.862Z,70.47
2019-03-22T16:57:03.521Z,71.30
2019-03-22T16:59:32.876Z,71.66
2019-03-22T17:02:02.428Z,71.73
2019-03-22T17:04:32.019Z,72.27
2019-03-22T17:07:01.373Z,72.88
2019-03-22T17:09:53.705Z,73.14
2019-03-22T17:12:36.270Z,73.64
2019-03-22T17:15:06.056Z,73.75
2019-03-22T17:17:44.919Z,74.20
2019-03-22T17:23:16.873Z,74.46
2019-03-22T17:25:46.284Z,75.26
2019-03-22T17:28:15.739Z,75.10
2019-03-22T17:30:45.938Z,75.85
2019-03-22T17:33:16.023Z,76.08
2019-03-22T17:35:51.451Z,75.87
2019-03-22T17:38:21.150Z,76.36
2019-03-22T17:41:01.431Z,76.63
2019-03-22T17:43:32.713Z,77.25
2019-03-22T17:54:02.509Z,78.39
2019-03-22T17:56:33.569Z,78.12
2019-03-22T17:59:08.094Z,78.18
2019-03-22T18:01:44.929Z,79.10
2019-03-22T18:04:23.700Z,78.81
2019-03-22T18:06:46.054Z,79.08
2019-03-22T18:09:15.639Z,80.02
2019-03-22T18:11:45.094Z,79.77
2019-03-22T18:14:14.434Z,79.77
2019-03-22T18:16:44.021Z,79.63
2019-03-22T18:19:13.535Z,80.53
2019-03-22T18:21:43.110Z,80.56
2019-03-22T18:24:12.532Z,81.09
2019-03-22T18:26:42.190Z,81.40
2019-03-22T18:29:11.810Z,82.46
2019-03-22T18:31:41.148Z,82.27
2019-03-22T18:34:10.584Z,82.98
2019-03-22T18:36:40.095Z,82.66
2019-03-22T18:39:10.631Z,82.80
2019-03-22T18:41:39.996Z,83.37
2019-03-22T18:44:09.715Z,82.89
2019-03-22T18:46:39.360Z,83.33
2019-03-22T18:49:09.085Z,83.71
2019-03-22T18:51:38.540Z,83.78
2019-03-22T18:54:08.186Z,83.72
2019-03-22T18:56:37.760Z,84.41
2019-03-22T18:59:07.349Z,84.72
2019-03-22T19:01:36.827Z,84.68
2019-03-22T19:04:06.315Z,84.61
2019-03-22T19:06:37.693Z,85.21
2019-03-22T19:09:08.471Z,85.17
2019-03-22T19:11:37.969Z,85.36
2019-03-22T19:14:07.434Z,85.70
2019-03-22T19:16:36.877Z,85.53
2019-03-22T19:19:06.350Z,85.42
2019-03-22T19:21:35.787Z,86.07
2019-03-22T19:24:05.172Z,85.99
2019-03-22T19:26:34.618Z,86.48
2019-03-22T19:29:04.053Z,85.93
2019-03-22T19:31:33.486Z,86.26
2019-03-22T19:34:02.857Z,86.36
2019-03-22T19:36:32.367Z,86.79
2019-03-22T19:39:01.833Z,86.79
2019-03-22T19:41:31.278Z,86.70
2019-03-22T19:44:00.911Z,86.88
2019-03-22T19:46:30.387Z,86.99
2019-03-22T19:48:59.862Z,87.19
2019-03-22T19:51:29.213Z,86.99
2019-03-22T19:53:58.628Z,87.22
2019-03-22T19:56:28.117Z,87.24
2019-03-22T19:58:57.679Z,87.36
2019-03-22T20:01:27.018Z,87.36
2019-03-22T20:03:56.501Z,87.59
2019-03-22T20:06:25.942Z,87.38
2019-03-22T20:08:55.545Z,87.38
2019-03-22T20:11:27.450Z,88.04
2019-03-22T20:13:56.917Z,88.32
2019-03-22T20:16:26.421Z,88.32
2019-03-22T20:18:55.858Z,87.99
2019-03-22T20:21:25.207Z,88.30
2019-03-22T20:23:54.720Z,88.53
2019-03-22T20:26:24.287Z,88.58
2019-03-22T20:28:53.720Z,88.58
2019-03-22T20:31:23.098Z,88.79
2019-03-22T20:33:53.116Z,88.84
2019-03-22T20:36:22.676Z,89.08
2019-03-22T20:38:52.184Z,89.02
2019-03-22T20:41:21.573Z,89.00
2019-03-22T20:43:51.071Z,89.14
2019-03-22T20:46:20.434Z,89.37
2019-03-22T20:48:51.492Z,89.38
2019-03-22T20:51:20.815Z,89.20
2019-03-22T20:53:50.841Z,89.72
2019-03-22T20:56:20.412Z,89.87
2019-03-22T20:58:49.762Z,89.82
2019-03-22T21:01:19.246Z,90.11
2019-03-22T21:03:50.151Z,90.33
2019-03-22T21:06:20.004Z,90.36
2019-03-22T21:08:49.485Z,90.61
2019-03-22T21:11:18.827Z,90.60
2019-03-22T21:13:49.688Z,90.67
2019-03-22T21:16:19.415Z,90.92
2019-03-22T21:18:48.807Z,90.74
2019-03-22T21:21:18.281Z,90.74
2019-03-22T21:23:47.662Z,91.21
2019-03-22T21:26:17.236Z,91.23
2019-03-22T21:28:48.805Z,91.40
2019-03-22T21:31:18.360Z,91.68
2019-03-22T21:33:47.792Z,91.60
2019-03-22T21:36:17.313Z,91.88
2019-03-22T21:38:46.832Z,92.02
2019-03-22T21:41:16.255Z,91.96
2019-03-22T21:43:45.655Z,92.04
2019-03-22T21:46:15.135Z,92.22
2019-03-22T21:48:44.615Z,92.32
2019-03-22T21:51:14.359Z,92.54
2019-03-22T21:53:43.718Z,92.35
2019-03-22T21:56:13.254Z,92.65
2019-03-22T21:58:42.735Z,92.76
2019-03-22T22:01:12.160Z,92.68
2019-03-22T22:03:42.781Z,92.89
2019-03-22T22:06:13.436Z,93.03
2019-03-22T22:08:42.976Z,93.07
2019-03-22T22:11:12.353Z,92.89
2019-03-22T22:13:42.231Z,93.23
2019-03-22T22:16:11.895Z,93.53
2019-03-22T22:18:41.549Z,93.59
2019-03-22T22:21:12.157Z,93.72
2019-03-22T22:23:41.620Z,93.70
2019-03-22T22:26:21.009Z,93.85
2019-03-22T22:28:50.454Z,93.74
2019-03-22T22:32:21.114Z,93.91
2019-03-22T22:34:50.487Z,93.76
2019-03-22T22:37:20.683Z,94.02
2019-03-22T22:39:50.322Z,94.18
2019-03-22T22:42:19.995Z,94.13
2019-03-22T22:44:50.794Z,94.29
2019-03-22T22:47:20.621Z,94.42
2019-03-22T22:49:50.395Z,94.40
2019-03-22T22:52:19.987Z,94.58
2019-03-22T22:54:49.523Z,94.56
2019-03-22T22:57:19.216Z,94.57
2019-03-22T22:59:48.631Z,94.51
2019-03-22T23:02:18.069Z,94.57
2019-03-22T23:04:47.604Z,94.53
2019-03-22T23:07:17.051Z,94.58
2019-03-22T23:09:46.483Z,94.78
2019-03-22T23:12:15.968Z,94.52
2019-03-22T23:14:45.498Z,94.58
2019-03-22T23:17:14.937Z,94.38
2019-03-22T23:19:44.301Z,94.28
2019-03-22T23:22:13.922Z,94.82
2019-03-22T23:24:44.605Z,94.81
2019-03-22T23:27:14.253Z,94.37
2019-03-22T23:29:43.735Z,94.84
2019-03-22T23:32:13.224Z,94.54
2019-03-22T23:34:42.595Z,94.63
2019-03-22T23:37:12.065Z,94.91
2019-03-22T23:39:41.578Z,94.79
2019-03-22T23:42:10.989Z,94.59
2019-03-22T23:44:40.376Z,94.50
2019-03-22T23:47:09.919Z,94.58
2019-03-22T23:49:39.368Z,94.46
2019-03-22T23:52:08.774Z,94.19
2019-03-22T23:54:38.267Z,93.77
2019-03-22T23:57:07.668Z,93.80
2019-03-22T23:59:37.266Z,93.76
